Time;durP1;ratioP1;P1;durP2;ratioP2;P2;SDS_P1;SDS_P2;PMS_P1;PMS_P2;Temp;Humidity;BMP_temperature;BMP_pressure;BME280_temperature;BME280_humidity;BME280_pressure;Samples;Min_cycle;Max_cycle;Signal;HPM_P1;HPM_P2
2021/09/10 00:01:10;;;;;;;25.53;21.63;;;20.10;99.90;;;;;;4422704;32;20240;-66
2021/09/10 00:03:42;;;;;;;25.40;22.77;;;20.10;99.90;;;;;;4420644;32;20231;-69
2021/09/10 00:06:09;;;;;;;26.13;22.77;;;20.10;99.90;;;;;;4421203;32;20193;-66
2021/09/10 00:08:36;;;;;;;26.67;23.33;;;20.20;99.90;;;;;;4421697;32;20189;-69
2021/09/10 00:11:03;;;;;;;26.80;23.50;;;20.20;99.90;;;;;;4420958;32;20163;-66
2021/09/10 00:13:31;;;;;;;25.33;22.60;;;20.20;99.90;;;;;;4374424;32;20177;-65
2021/09/10 00:15:58;;;;;;;24.07;21.60;;;20.20;99.90;;;;;;4343471;33;20153;-65
2021/09/10 00:18:26;;;;;;;25.07;22.40;;;20.20;99.90;;;;;;4391280;32;20166;-65
2021/09/10 00:20:53;;;;;;;27.23;23.40;;;20.20;99.90;;;;;;4421029;32;20205;-65
2021/09/10 00:23:19;;;;;;;25.03;21.30;;;20.10;99.90;;;;;;4409999;32;20177;-64
2021/09/10 00:25:49;;;;;;;25.23;22.63;;;20.10;99.90;;;;;;4407122;32;20203;-65
2021/09/10 00:28:16;;;;;;;23.33;20.93;;;19.90;99.90;;;;;;4344526;33;20164;-64
2021/09/10 00:30:44;;;;;;;26.33;21.93;;;19.90;99.90;;;;;;4349757;32;20179;-65
2021/09/10 00:33:11;;;;;;;24.67;22.07;;;19.80;99.90;;;;;;4420987;32;20615;-65
2021/09/10 00:35:38;;;;;;;23.50;21.10;;;19.80;99.90;;;;;;4414874;32;20230;-63
2021/09/10 00:38:05;;;;;;;23.70;21.30;;;19.70;99.90;;;;;;4343795;33;20159;-65
2021/09/10 00:40:33;;;;;;;23.73;21.20;;;19.70;99.90;;;;;;4344541;32;20156;-64
2021/09/10 00:43:00;;;;;;;22.87;20.17;;;19.60;99.90;;;;;;4346183;32;20173;-65
2021/09/10 00:45:29;;;;;;;25.07;22.53;;;19.60;99.90;;;;;;4345082;33;20156;-64
2021/09/10 00:47:57;;;;;;;24.97;22.27;;;19.60;99.90;;;;;;4417874;32;20178;-65
2021/09/10 00:50:25;;;;;;;27.97;23.87;;;19.50;99.90;;;;;;4420635;32;20449;-65
2021/09/10 00:52:52;;;;;;;26.93;23.97;;;19.50;99.90;;;;;;4414700;32;20183;-67
2021/09/10 00:55:24;;;;;;;25.70;22.87;;;19.50;99.90;;;;;;4420632;32;20184;-65
2021/09/10 00:57:51;;;;;;;27.20;22.90;;;19.50;99.90;;;;;;4365477;32;20501;-67
2021/09/10 01:00:18;;;;;;;27.40;24.43;;;19.40;99.90;;;;;;4343672;33;20171;-65
2021/09/10 01:02:45;;;;;;;26.90;23.97;;;19.40;99.90;;;;;;4348861;32;20512;-65
2021/09/10 01:05:14;;;;;;;29.23;23.37;;;19.40;99.90;;;;;;4346730;32;20169;-66
2021/09/10 01:07:46;;;;;;;27.27;23.20;;;19.40;99.90;;;;;;4360298;32;20165;-65
2021/09/10 01:10:13;;;;;;;23.70;21.30;;;19.30;99.90;;;;;;4343292;33;20144;-65
2021/09/10 01:12:42;;;;;;;25.37;22.53;;;19.30;99.90;;;;;;4348339;32;20225;-65
2021/09/10 01:15:10;;;;;;;25.93;23.13;;;19.30;99.90;;;;;;4344924;33;20596;-65
2021/09/10 01:17:38;;;;;;;25.87;23.10;;;19.30;99.90;;;;;;4394390;32;20494;-64
2021/09/10 01:20:08;;;;;;;24.77;22.17;;;19.20;99.90;;;;;;4416298;32;20191;-65
2021/09/10 01:22:37;;;;;;;27.37;24.57;;;19.20;99.90;;;;;;4420831;32;20158;-65
2021/09/10 01:25:11;;;;;;;27.03;24.30;;;19.20;99.90;;;;;;4409529;32;20147;-65
2021/09/10 01:27:40;;;;;;;27.27;23.50;;;19.20;99.90;;;;;;4389051;32;20212;-68
2021/09/10 01:30:08;;;;;;;28.17;24.47;;;19.10;99.90;;;;;;4418843;32;20158;-65
2021/09/10 01:32:35;;;;;;;29.97;24.70;;;19.10;99.90;;;;;;4356696;32;20427;-67
2021/09/10 01:35:02;;;;;;;29.00;25.07;;;19.10;99.90;;;;;;4346504;32;20164;-68
2021/09/10 01:37:29;;;;;;;26.83;24.00;;;19.00;99.90;;;;;;4408133;32;20155;-66
2021/09/10 01:39:56;;;;;;;29.63;25.43;;;19.00;99.90;;;;;;4408062;32;20226;-65
2021/09/10 01:42:24;;;;;;;30.43;26.80;;;19.00;99.90;;;;;;4415938;32;20147;-65
2021/09/10 01:44:51;;;;;;;31.17;25.83;;;19.00;99.90;;;;;;4423101;32;20230;-65
2021/09/10 01:47:18;;;;;;;29.13;25.30;;;19.00;99.90;;;;;;4417460;32;20163;-64
2021/09/10 01:49:45;;;;;;;29.03;25.93;;;19.00;99.90;;;;;;4424799;32;20186;-65
2021/09/10 01:52:12;;;;;;;28.20;24.33;;;19.10;99.90;;;;;;4418070;32;20190;-65
2021/09/10 01:54:39;;;;;;;33.67;26.30;;;19.10;99.90;;;;;;4423062;32;20139;-65
2021/09/10 01:57:06;;;;;;;29.43;26.23;;;19.10;99.90;;;;;;4365799;32;20168;-65
2021/09/10 01:59:34;;;;;;;27.13;23.93;;;19.20;99.90;;;;;;4345374;33;20140;-66
2021/09/10 02:02:01;;;;;;;29.17;26.07;;;19.20;99.90;;;;;;4388142;32;20160;-65
2021/09/10 02:04:28;;;;;;;28.27;25.27;;;19.20;99.90;;;;;;4409072;32;20159;-67
2021/09/10 02:06:54;;;;;;;28.33;25.13;;;19.30;99.90;;;;;;4415407;32;20171;-65
2021/09/10 02:09:21;;;;;;;27.13;24.07;;;19.30;99.90;;;;;;4422876;32;20143;-65
2021/09/10 02:11:48;;;;;;;29.53;24.10;;;19.30;99.90;;;;;;4417629;32;20613;-67
2021/09/10 02:14:15;;;;;;;28.87;23.40;;;19.40;99.90;;;;;;4408093;32;20540;-65
2021/09/10 02:16:46;;;;;;;25.70;22.97;;;19.40;99.90;;;;;;4413128;32;20163;-65
2021/09/10 02:19:13;;;;;;;26.30;23.03;;;19.40;99.90;;;;;;4422802;32;20471;-65
2021/09/10 02:21:40;;;;;;;26.60;22.77;;;19.40;99.90;;;;;;4414176;32;20218;-65
2021/09/10 02:24:07;;;;;;;26.63;23.93;;;19.30;99.90;;;;;;4413539;32;20182;-65
2021/09/10 02:26:34;;;;;;;26.87;22.37;;;19.30;99.90;;;;;;4386174;32;20588;-66
2021/09/10 02:29:01;;;;;;;28.23;24.17;;;19.20;99.90;;;;;;4345438;33;20160;-67
2021/09/10 02:31:28;;;;;;;27.00;23.00;;;19.20;99.90;;;;;;4361614;32;20154;-66
2021/09/10 02:33:56;;;;;;;26.30;23.23;;;19.10;99.90;;;;;;4423418;32;20151;-65
2021/09/10 02:36:23;;;;;;;29.60;22.73;;;19.20;99.90;;;;;;4389683;32;20187;-65
2021/09/10 02:38:50;;;;;;;29.87;23.97;;;19.10;99.90;;;;;;4345108;33;20621;-66
2021/09/10 02:41:17;;;;;;;27.23;23.03;;;19.10;99.90;;;;;;4349725;32;20639;-65
2021/09/10 02:43:44;;;;;;;24.53;21.50;;;19.00;99.90;;;;;;4345715;33;20157;-65
2021/09/10 02:46:11;;;;;;;29.27;23.50;;;19.00;99.90;;;;;;4366743;32;20179;-67
2021/09/10 02:48:37;;;;;;;29.30;24.30;;;18.90;99.90;;;;;;4422384;32;20154;-64
2021/09/10 02:51:06;;;;;;;30.87;24.20;;;18.90;99.90;;;;;;4416443;32;20596;-65
2021/09/10 02:53:32;;;;;;;32.13;23.67;;;18.90;99.90;;;;;;4423243;32;20152;-66
2021/09/10 02:56:00;;;;;;;29.73;23.00;;;18.90;99.90;;;;;;4410690;32;20310;-65
2021/09/10 02:58:29;;;;;;;29.23;25.07;;;18.90;99.90;;;;;;4346357;32;20155;-64
2021/09/10 03:00:59;;;;;;;27.30;23.70;;;18.90;99.90;;;;;;4349795;32;20490;-65
2021/09/10 03:03:26;;;;;;;33.13;25.70;;;18.90;99.90;;;;;;4344933;32;20473;-65
2021/09/10 03:05:53;;;;;;;30.30;24.57;;;18.90;99.90;;;;;;4348323;32;20136;-65
2021/09/10 03:08:22;;;;;;;30.47;24.77;;;18.90;99.90;;;;;;4409334;32;20240;-64
2021/09/10 03:10:50;;;;;;;32.17;25.57;;;18.90;99.90;;;;;;4406510;32;20140;-64
2021/09/10 03:13:17;;;;;;;29.03;23.80;;;18.90;99.90;;;;;;4417207;32;20174;-64
2021/09/10 03:15:47;;;;;;;30.00;25.17;;;18.90;99.90;;;;;;4422206;32;20135;-64
2021/09/10 03:18:13;;;;;;;26.83;22.80;;;18.80;99.90;;;;;;4347534;32;20164;-63
2021/09/10 03:20:40;;;;;;;29.80;25.83;;;18.80;99.90;;;;;;4344473;33;20181;-63
2021/09/10 03:23:07;;;;;;;32.83;26.40;;;18.80;99.90;;;;;;4414588;32;20204;-64
2021/09/10 03:25:35;;;;;;;28.83;24.40;;;18.80;99.90;;;;;;4421192;32;20151;-64
2021/09/10 03:28:02;;;;;;;28.03;24.87;;;18.80;99.90;;;;;;4421450;32;20487;-64
2021/09/10 03:30:29;;;;;;;28.20;23.90;;;18.80;99.90;;;;;;4389379;32;20610;-65
2021/09/10 03:32:56;;;;;;;33.23;23.97;;;18.80;99.90;;;;;;4345995;33;20142;-65
2021/09/10 03:35:23;;;;;;;27.13;23.57;;;18.80;99.90;;;;;;4374277;32;20448;-64
2021/09/10 03:37:50;;;;;;;28.23;23.03;;;18.90;99.90;;;;;;4422311;32;20529;-64
2021/09/10 03:40:17;;;;;;;25.07;21.80;;;18.90;99.90;;;;;;4396777;32;20156;-64
2021/09/10 03:42:45;;;;;;;28.20;24.23;;;19.00;99.90;;;;;;4344341;33;20553;-64
2021/09/10 03:45:12;;;;;;;26.77;23.40;;;19.10;99.90;;;;;;4362873;32;20198;-67
2021/09/10 03:47:39;;;;;;;25.67;21.87;;;19.10;99.90;;;;;;4422189;32;20147;-64
2021/09/10 03:50:07;;;;;;;32.13;25.57;;;19.10;99.90;;;;;;4417735;32;20629;-64
2021/09/10 03:52:34;;;;;;;27.80;22.87;;;19.20;99.90;;;;;;4421194;32;20194;-67
2021/09/10 03:55:01;;;;;;;29.07;22.10;;;19.20;99.90;;;;;;4412448;32;20661;-66
2021/09/10 03:57:27;;;;;;;27.30;21.77;;;19.20;99.90;;;;;;4344539;33;20202;-66
2021/09/10 03:59:56;;;;;;;24.97;22.27;;;19.20;99.90;;;;;;4348076;32;20141;-65
2021/09/10 04:02:22;;;;;;;25.70;22.47;;;19.30;99.90;;;;;;4415361;32;20488;-64
2021/09/10 04:04:49;;;;;;;29.33;21.93;;;19.20;99.90;;;;;;4420177;32;20214;-64
2021/09/10 04:07:16;;;;;;;26.50;20.67;;;19.20;99.90;;;;;;4406257;32;20583;-64
2021/09/10 04:09:43;;;;;;;25.63;21.60;;;19.30;99.90;;;;;;4407465;32;20515;-66
2021/09/10 04:12:10;;;;;;;27.80;21.33;;;19.30;99.90;;;;;;4364835;32;20175;-64
2021/09/10 04:14:36;;;;;;;24.57;20.80;;;19.20;99.90;;;;;;4421401;32;20134;-64
2021/09/10 04:17:05;;;;;;;27.47;21.47;;;19.20;99.90;;;;;;4353906;32;20148;-65
2021/09/10 04:19:33;;;;;;;25.70;21.27;;;19.20;99.90;;;;;;4344820;33;20264;-65
2021/09/10 04:22:00;;;;;;;24.30;20.53;;;19.20;99.90;;;;;;4348448;32;20511;-65
2021/09/10 04:24:27;;;;;;;25.27;21.27;;;19.20;99.90;;;;;;4363483;32;20243;-65
2021/09/10 04:26:54;;;;;;;29.00;23.00;;;19.20;99.90;;;;;;4358313;32;20141;-64
2021/09/10 04:29:20;;;;;;;25.57;21.23;;;19.20;99.90;;;;;;4369638;32;20173;-65
2021/09/10 04:31:47;;;;;;;22.33;19.33;;;19.20;99.90;;;;;;4344388;33;20141;-64
2021/09/10 04:34:15;;;;;;;28.67;21.47;;;19.10;99.90;;;;;;4350877;32;20486;-63
2021/09/10 04:36:42;;;;;;;22.53;20.03;;;19.10;99.90;;;;;;4417285;32;20265;-65
2021/09/10 04:39:09;;;;;;;29.07;21.60;;;19.10;99.90;;;;;;4390275;32;20158;-66
2021/09/10 04:41:36;;;;;;;25.63;20.53;;;19.10;99.90;;;;;;4343773;33;20159;-66
2021/09/10 04:44:03;;;;;;;24.47;20.33;;;19.10;99.90;;;;;;4352802;32;20199;-65
2021/09/10 04:46:30;;;;;;;27.20;21.57;;;19.10;99.90;;;;;;4420460;32;20218;-67
2021/09/10 04:48:57;;;;;;;26.83;19.67;;;19.10;99.90;;;;;;4392368;32;20164;-65
2021/09/10 04:51:25;;;;;;;24.23;19.80;;;19.10;99.90;;;;;;4371047;32;20162;-65
2021/09/10 04:53:52;;;;;;;24.90;20.87;;;19.10;99.90;;;;;;4420468;32;20168;-66
2021/09/10 04:56:18;;;;;;;22.30;19.63;;;19.10;99.90;;;;;;4406805;32;20226;-67
2021/09/10 04:58:45;;;;;;;22.03;19.60;;;19.20;99.90;;;;;;4407916;32;20642;-66
2021/09/10 05:01:12;;;;;;;25.83;21.43;;;19.20;99.90;;;;;;4421089;32;20191;-64
2021/09/10 05:03:39;;;;;;;21.40;19.20;;;19.20;99.90;;;;;;4421594;32;20159;-67
2021/09/10 05:06:06;;;;;;;27.60;20.90;;;19.20;99.90;;;;;;4425021;32;20167;-66
2021/09/10 05:08:34;;;;;;;24.23;20.07;;;19.20;99.90;;;;;;4423597;32;20201;-65
2021/09/10 05:11:01;;;;;;;25.23;19.70;;;19.20;99.90;;;;;;4423523;32;20465;-64
2021/09/10 05:13:31;;;;;;;21.63;19.33;;;19.20;99.90;;;;;;4422212;32;20200;-66
2021/09/10 05:15:58;;;;;;;23.73;20.03;;;19.20;99.90;;;;;;4423275;32;20207;-68
2021/09/10 05:18:25;;;;;;;27.07;19.90;;;19.30;99.90;;;;;;4422534;32;20197;-65
2021/09/10 05:20:52;;;;;;;23.67;18.97;;;19.20;99.90;;;;;;4424322;32;20925;-65
2021/09/10 05:23:19;;;;;;;24.20;20.07;;;19.20;99.90;;;;;;4421006;32;20213;-66
2021/09/10 05:25:47;;;;;;;26.33;19.87;;;19.20;99.90;;;;;;4420455;32;20583;-64
2021/09/10 05:28:14;;;;;;;25.77;19.20;;;19.20;99.90;;;;;;4418386;32;20178;-63
2021/09/10 05:30:40;;;;;;;21.53;18.23;;;19.30;99.90;;;;;;4419325;32;20163;-67
2021/09/10 05:33:07;;;;;;;24.50;19.07;;;19.30;99.90;;;;;;4422033;32;20174;-64
2021/09/10 05:35:34;;;;;;;20.40;18.20;;;19.30;99.90;;;;;;4423791;32;20486;-66
2021/09/10 05:38:01;;;;;;;20.97;18.67;;;19.40;99.90;;;;;;4422185;32;20163;-65
2021/09/10 05:40:33;;;;;;;19.10;17.10;;;19.40;99.90;;;;;;4422245;32;20238;-65
2021/09/10 05:43:02;;;;;;;22.50;17.20;;;19.40;99.90;;;;;;4420053;32;20171;-64
2021/09/10 05:45:29;;;;;;;21.13;18.03;;;19.40;99.90;;;;;;4421412;32;20598;-64
2021/09/10 05:47:57;;;;;;;21.17;17.33;;;19.40;99.90;;;;;;4422158;32;20182;-66
2021/09/10 05:50:24;;;;;;;22.17;17.03;;;19.50;99.90;;;;;;4421260;32;20148;-66
2021/09/10 05:52:53;;;;;;;21.80;17.10;;;19.40;99.90;;;;;;4420408;32;20166;-65
2021/09/10 05:55:20;;;;;;;22.90;17.07;;;19.50;99.90;;;;;;4421393;32;20189;-65
2021/09/10 05:57:47;;;;;;;23.20;16.37;;;19.60;99.90;;;;;;4421954;32;20564;-64
2021/09/10 06:00:16;;;;;;;20.27;17.37;;;19.60;99.90;;;;;;4422479;32;20578;-64
2021/09/10 06:02:43;;;;;;;18.27;16.10;;;19.60;99.90;;;;;;4421846;32;20205;-65
2021/09/10 06:05:11;;;;;;;18.20;16.10;;;19.60;99.90;;;;;;4422009;32;20444;-65
2021/09/10 06:07:38;;;;;;;20.63;15.80;;;19.60;99.90;;;;;;4420820;32;20572;-65
2021/09/10 06:10:06;;;;;;;20.13;16.20;;;19.60;99.90;;;;;;4421222;32;20147;-64
2021/09/10 06:12:36;;;;;;;21.20;17.60;;;19.60;99.90;;;;;;4414915;32;20210;-65
2021/09/10 06:15:10;;;;;;;20.97;16.87;;;19.60;99.90;;;;;;4412627;32;20603;-67
2021/09/10 06:17:46;;;;;;;21.33;17.80;;;19.60;99.90;;;;;;4415634;32;20155;-66
2021/09/10 06:20:15;;;;;;;18.93;14.83;;;19.60;99.90;;;;;;4412654;32;20194;-66
2021/09/10 06:22:45;;;;;;;21.03;17.17;;;19.60;99.90;;;;;;4410319;32;20222;-65
2021/09/10 06:25:12;;;;;;;20.63;15.70;;;19.70;99.90;;;;;;4412473;32;20139;-65
2021/09/10 06:27:39;;;;;;;19.80;16.30;;;19.80;99.90;;;;;;4408248;32;20235;-66
2021/09/10 06:30:25;;;;;;;19.20;16.07;;;19.80;99.90;;;;;;4409790;32;20166;-66
2021/09/10 06:32:53;;;;;;;17.47;15.03;;;19.90;99.90;;;;;;4419074;32;20162;-64
2021/09/10 06:35:22;;;;;;;19.57;15.33;;;20.00;99.90;;;;;;4422524;32;20143;-64
2021/09/10 06:37:49;;;;;;;19.67;15.73;;;20.00;99.90;;;;;;4424341;32;20154;-64
2021/09/10 06:40:17;;;;;;;18.27;14.83;;;20.10;99.90;;;;;;4422520;32;20158;-64
2021/09/10 06:42:44;;;;;;;17.53;14.83;;;20.10;99.90;;;;;;4422517;32;20238;-65
2021/09/10 06:45:12;;;;;;;19.37;15.80;;;20.10;99.90;;;;;;4424116;32;20158;-64
2021/09/10 06:47:40;;;;;;;20.27;15.60;;;20.20;99.90;;;;;;4422446;32;20158;-67
2021/09/10 06:50:10;;;;;;;19.63;16.10;;;20.20;99.90;;;;;;4424074;32;20539;-68
2021/09/10 06:52:38;;;;;;;17.63;15.17;;;20.30;99.90;;;;;;4421991;32;20220;-67
2021/09/10 06:55:07;;;;;;;17.50;15.60;;;20.40;99.90;;;;;;4423973;32;20581;-65
2021/09/10 06:57:35;;;;;;;20.40;14.53;;;20.40;99.90;;;;;;4422109;32;20155;-66
2021/09/10 07:00:02;;;;;;;16.33;14.63;;;20.60;99.90;;;;;;4422285;32;20136;-67
2021/09/10 07:02:29;;;;;;;20.90;16.07;;;20.60;99.90;;;;;;4423921;32;20147;-65
2021/09/10 07:04:57;;;;;;;18.47;15.50;;;20.70;99.90;;;;;;4423352;32;20136;-65
2021/09/10 07:07:25;;;;;;;15.90;13.50;;;20.70;99.90;;;;;;4423673;32;20183;-67
2021/09/10 07:09:52;;;;;;;16.93;15.13;;;20.80;99.90;;;;;;4423901;32;20139;-64
2021/09/10 07:12:20;;;;;;;15.10;13.50;;;20.80;99.90;;;;;;4423698;32;20566;-65
2021/09/10 07:14:47;;;;;;;19.13;14.30;;;20.90;99.90;;;;;;4423578;32;20451;-65
2021/09/10 07:17:14;;;;;;;16.23;12.60;;;21.00;99.90;;;;;;4421818;32;20144;-65
2021/09/10 07:19:41;;;;;;;15.53;14.03;;;21.00;99.90;;;;;;4422171;32;20139;-65
2021/09/10 07:22:08;;;;;;;18.37;15.17;;;21.10;99.90;;;;;;4423502;32;20563;-67
2021/09/10 07:24:37;;;;;;;14.83;13.33;;;21.20;99.90;;;;;;4423114;32;20566;-67
2021/09/10 07:27:04;;;;;;;13.67;12.27;;;21.30;99.90;;;;;;4422780;32;20168;-65
2021/09/10 07:29:32;;;;;;;16.27;14.57;;;21.40;99.90;;;;;;4423281;32;20143;-65
2021/09/10 07:31:59;;;;;;;15.70;12.90;;;21.50;99.90;;;;;;4421613;32;20170;-68
2021/09/10 07:34:26;;;;;;;17.67;14.07;;;21.60;99.90;;;;;;4421691;32;20143;-67
2021/09/10 07:36:53;;;;;;;14.93;13.23;;;21.70;99.90;;;;;;4423325;32;20194;-67
2021/09/10 07:39:22;;;;;;;15.63;12.53;;;21.70;99.90;;;;;;4423400;32;20480;-64
2021/09/10 07:41:51;;;;;;;18.40;13.87;;;21.70;99.90;;;;;;4423242;32;20539;-66
2021/09/10 07:44:18;;;;;;;14.13;12.70;;;21.80;99.90;;;;;;4422286;32;20139;-66
2021/09/10 07:46:47;;;;;;;15.77;14.07;;;21.80;99.90;;;;;;4423198;32;20140;-67
2021/09/10 07:49:14;;;;;;;15.10;13.57;;;21.80;99.90;;;;;;4421568;32;20241;-65
2021/09/10 07:51:43;;;;;;;13.90;12.47;;;21.90;99.90;;;;;;4422237;32;20204;-66
2021/09/10 07:54:10;;;;;;;15.83;13.50;;;22.10;99.90;;;;;;4421848;32;20139;-65
2021/09/10 07:56:37;;;;;;;15.83;13.47;;;22.30;99.90;;;;;;4421796;32;20509;-64
2021/09/10 07:59:06;;;;;;;14.73;13.20;;;22.40;99.90;;;;;;4421256;32;20155;-65
2021/09/10 08:01:33;;;;;;;15.97;13.87;;;22.50;99.90;;;;;;4422982;32;20139;-65
2021/09/10 08:04:01;;;;;;;14.37;12.87;;;22.60;99.90;;;;;;4422849;32;20136;-66
2021/09/10 08:06:29;;;;;;;16.10;13.97;;;22.70;99.90;;;;;;4422822;32;20148;-65
2021/09/10 08:08:56;;;;;;;14.93;10.93;;;22.80;99.90;;;;;;4421071;32;20166;-65
2021/09/10 08:11:26;;;;;;;13.30;11.70;;;23.00;99.90;;;;;;4422496;32;20135;-65
2021/09/10 08:13:53;;;;;;;11.82;10.63;;;23.30;99.90;;;;;;4421057;32;20135;-68
2021/09/10 08:16:21;;;;;;;13.77;12.37;;;23.40;99.90;;;;;;4421430;32;20211;-66
2021/09/10 08:18:48;;;;;;;12.52;11.32;;;23.40;99.90;;;;;;4421149;32;20215;-66
2021/09/10 08:21:15;;;;;;;16.40;12.52;;;23.30;99.90;;;;;;4422274;32;20170;-66
2021/09/10 08:23:42;;;;;;;12.80;11.38;;;23.20;99.90;;;;;;4422856;32;20551;-65
2021/09/10 08:26:08;;;;;;;14.40;11.73;;;23.30;99.90;;;;;;4421520;32;20135;-67
2021/09/10 08:28:35;;;;;;;14.77;12.43;;;23.50;99.90;;;;;;4421250;32;20214;-66
2021/09/10 08:31:02;;;;;;;17.90;11.05;;;23.70;99.90;;;;;;4420903;32;20139;-66
2021/09/10 08:33:30;;;;;;;13.27;10.82;;;24.00;99.90;;;;;;4421542;32;20520;-68
2021/09/10 08:35:57;;;;;;;11.48;10.02;;;24.20;99.90;;;;;;4420326;32;20178;-68
2021/09/10 08:38:24;;;;;;;16.20;12.23;;;24.40;99.90;;;;;;4420549;32;20174;-67
2021/09/10 08:40:56;;;;;;;14.00;12.52;;;24.30;99.90;;;;;;4420664;32;20139;-66
2021/09/10 08:43:24;;;;;;;18.02;13.32;;;24.30;99.90;;;;;;4420699;32;20131;-66
2021/09/10 08:45:52;;;;;;;16.25;13.75;;;24.00;99.90;;;;;;4422162;32;20144;-68
2021/09/10 08:48:19;;;;;;;14.05;12.48;;;24.10;99.90;;;;;;4420864;32;20563;-65
2021/09/10 08:50:48;;;;;;;14.68;11.73;;;24.30;99.90;;;;;;4420561;32;20162;-65
2021/09/10 08:53:15;;;;;;;15.32;13.62;;;24.40;99.90;;;;;;4420661;32;20254;-68
2021/09/10 08:55:43;;;;;;;19.02;12.32;;;24.50;99.90;;;;;;4421126;32;20559;-65
2021/09/10 08:58:10;;;;;;;13.15;11.93;;;24.50;99.90;;;;;;4421377;32;20147;-66
2021/09/10 09:00:40;;;;;;;12.82;11.52;;;24.50;99.90;;;;;;4420798;32;20159;-64
2021/09/10 09:03:10;;;;;;;17.12;12.25;;;24.50;99.90;;;;;;4421763;32;20139;-67
2021/09/10 09:05:37;;;;;;;12.20;11.02;;;24.70;99.90;;;;;;4420860;32;20143;-64
2021/09/10 09:08:11;;;;;;;12.85;11.57;;;25.00;99.90;;;;;;4418684;32;20168;-67
2021/09/10 09:11:00;;;;;;;16.40;12.52;;;25.20;99.90;;;;;;4419001;32;20607;-68
2021/09/10 09:13:29;;;;;;;11.70;10.60;;;24.80;99.90;;;;;;4418906;32;20576;-65
2021/09/10 09:16:30;;;;;;;12.20;11.05;;;24.60;99.90;;;;;;4418163;32;20213;-67
2021/09/10 09:18:59;;;;;;;15.32;12.05;;;24.60;99.90;;;;;;4352951;32;20161;-65
2021/09/10 09:21:28;;;;;;;14.25;11.48;;;24.60;99.90;;;;;;4358452;33;20188;-65
2021/09/10 09:23:58;;;;;;;14.25;12.90;;;24.60;99.90;;;;;;4358174;33;20218;-68
2021/09/10 09:26:28;;;;;;;15.85;13.45;;;24.70;99.90;;;;;;4359531;33;20236;-65
2021/09/10 09:29:06;;;;;;;17.20;14.65;;;25.00;99.90;;;;;;4359485;33;20278;-65
2021/09/10 09:31:34;;;;;;;14.77;13.27;;;25.20;99.90;;;;;;4359395;33;20176;-65
2021/09/10 09:34:01;;;;;;;15.02;13.13;;;25.40;99.90;;;;;;4358983;33;20169;-65
2021/09/10 09:36:28;;;;;;;13.20;12.00;;;25.60;99.90;;;;;;4359859;33;20181;-65
2021/09/10 09:38:58;;;;;;;18.35;16.48;;;25.70;99.90;;;;;;4359147;33;20188;-65
2021/09/10 09:41:27;;;;;;;14.77;13.30;;;25.70;99.90;;;;;;4358116;33;20172;-64
2021/09/10 09:44:08;;;;;;;15.85;14.32;;;25.50;99.90;;;;;;4358337;33;20450;-64
2021/09/10 09:46:35;;;;;;;17.83;14.45;;;25.40;99.90;;;;;;4357856;33;20534;-65
2021/09/10 09:49:09;;;;;;;13.55;12.25;;;25.20;99.90;;;;;;4358807;32;20161;-64
2021/09/10 09:51:37;;;;;;;18.33;14.55;;;25.30;99.90;;;;;;4360494;32;20152;-64
2021/09/10 09:54:06;;;;;;;15.65;14.05;;;25.20;99.90;;;;;;4403575;32;20166;-64
2021/09/10 09:56:33;;;;;;;12.02;10.98;;;25.30;99.90;;;;;;4408756;32;20162;-69
2021/09/10 09:59:01;;;;;;;15.82;13.35;;;25.50;99.90;;;;;;4408135;32;20154;-67
2021/09/10 10:01:30;;;;;;;16.60;13.65;;;25.80;99.90;;;;;;4408077;32;20144;-68
2021/09/10 10:03:57;;;;;;;16.10;14.48;;;26.20;99.90;;;;;;4408173;32;20166;-66
2021/09/10 10:06:29;;;;;;;12.95;11.75;;;26.30;99.90;;;;;;4409070;32;20148;-67
2021/09/10 10:09:01;;;;;;;16.42;13.70;;;26.40;99.90;;;;;;4408008;32;20140;-64
2021/09/10 10:11:39;;;;;;;16.10;14.45;;;26.50;99.90;;;;;;4407645;32;20139;-66
2021/09/10 10:14:07;;;;;;;16.23;14.63;;;26.30;99.90;;;;;;4408401;32;20163;-67
2021/09/10 10:16:39;;;;;;;18.08;15.75;;;26.20;99.90;;;;;;4407637;32;20140;-64
2021/09/10 10:19:08;;;;;;;16.65;14.95;;;26.20;99.90;;;;;;4407709;32;20162;-67
2021/09/10 10:21:54;;;;;;;16.95;15.20;;;26.30;99.90;;;;;;4407712;32;20265;-64
2021/09/10 10:24:43;;;;;;;14.70;13.30;;;26.40;99.90;;;;;;4407597;32;20140;-64
2021/09/10 10:27:34;;;;;;;12.93;11.68;;;26.70;99.90;;;;;;4375341;32;20656;-64
2021/09/10 10:30:02;;;;;;;13.18;11.95;;;26.90;99.90;;;;;;4376527;32;20270;-67
2021/09/10 10:32:31;;;;;;;17.25;15.65;;;26.80;99.90;;;;;;4375243;32;20160;-64
2021/09/10 10:35:17;;;;;;;15.38;13.23;;;26.90;99.90;;;;;;4375197;32;20187;-64
2021/09/10 10:37:45;;;;;;;13.32;12.02;;;26.70;99.90;;;;;;4376436;32;20196;-65
2021/09/10 10:40:36;;;;;;;14.07;12.65;;;26.40;99.90;;;;;;4376819;32;20591;-65
2021/09/10 10:43:07;;;;;;;15.45;14.10;;;26.30;99.90;;;;;;4374985;32;20189;-67
2021/09/10 10:46:02;;;;;;;16.33;14.70;;;26.30;99.90;;;;;;4376526;32;20191;-67
2021/09/10 10:48:52;;;;;;;16.02;14.63;;;26.60;99.90;;;;;;4375116;32;20149;-65
2021/09/10 10:51:42;;;;;;;14.20;12.75;;;26.70;99.90;;;;;;4374489;32;20198;-65
2021/09/10 10:54:11;;;;;;;14.57;13.13;;;26.80;99.90;;;;;;4374585;32;20223;-65
2021/09/10 10:56:48;;;;;;;15.25;12.48;;;26.60;99.90;;;;;;4374664;32;20223;-65
2021/09/10 10:59:36;;;;;;;13.80;12.52;;;26.40;99.90;;;;;;4374696;32;20144;-66
2021/09/10 11:02:38;;;;;;;13.50;12.20;;;26.70;99.90;;;;;;4376123;32;20156;-66
2021/09/10 11:05:26;;;;;;;13.55;12.25;;;27.00;99.90;;;;;;4402420;32;20295;-66
2021/09/10 11:07:53;;;;;;;14.48;13.18;;;27.20;99.90;;;;;;4408762;32;20186;-65
2021/09/10 11:10:20;;;;;;;13.82;12.52;;;27.00;99.90;;;;;;4406961;32;20476;-68
2021/09/10 11:12:50;;;;;;;13.62;11.52;;;27.10;99.90;;;;;;4406895;32;20136;-66
2021/09/10 11:15:24;;;;;;;13.20;12.00;;;27.30;99.90;;;;;;4407292;32;20178;-65
2021/09/10 11:18:10;;;;;;;14.15;12.75;;;27.20;99.90;;;;;;4407821;32;20154;-65
2021/09/10 11:20:39;;;;;;;13.20;11.93;;;26.90;99.90;;;;;;4407016;32;20198;-68
2021/09/10 11:23:09;;;;;;;11.40;10.38;;;26.70;99.90;;;;;;4407364;32;20167;-66
2021/09/10 11:25:44;;;;;;;12.23;10.93;;;26.60;99.90;;;;;;4407024;32;20202;-66
2021/09/10 11:28:11;;;;;;;12.35;11.25;;;26.80;99.90;;;;;;4406995;32;20212;-66
2021/09/10 11:30:39;;;;;;;13.13;11.82;;;26.60;99.90;;;;;;4407095;32;20152;-64
2021/09/10 11:33:06;;;;;;;14.25;12.57;;;26.50;99.90;;;;;;4407052;32;20144;-67
2021/09/10 11:35:36;;;;;;;17.95;13.13;;;26.40;99.90;;;;;;4406459;32;20218;-67
2021/09/10 11:38:05;;;;;;;11.45;10.50;;;26.00;99.90;;;;;;4406703;32;20471;-65
2021/09/10 11:40:38;;;;;;;12.55;11.35;;;25.90;99.90;;;;;;4406919;32;20148;-65
2021/09/10 11:43:07;;;;;;;12.68;11.05;;;25.80;99.90;;;;;;4406334;32;20136;-65
2021/09/10 11:45:36;;;;;;;11.95;10.93;;;25.80;99.90;;;;;;4406210;32;20270;-65
2021/09/10 11:48:07;;;;;;;13.60;12.30;;;26.00;99.90;;;;;;4406266;32;20174;-65
2021/09/10 11:50:55;;;;;;;14.20;10.82;;;26.30;99.90;;;;;;4352513;32;1705421;-67
2021/09/10 11:53:24;;;;;;;13.43;12.07;;;26.30;99.90;;;;;;4406077;32;20237;-65
2021/09/10 11:55:53;;;;;;;12.20;11.10;;;26.10;99.90;;;;;;4406132;32;20169;-66
2021/09/10 11:58:20;;;;;;;13.70;12.30;;;26.10;99.90;;;;;;4407659;32;20542;-65
2021/09/10 12:00:47;;;;;;;20.65;14.98;;;26.30;99.90;;;;;;4406194;32;20214;-65
2021/09/10 12:03:15;;;;;;;14.23;12.57;;;26.70;99.90;;;;;;4405409;32;20155;-66
2021/09/10 12:05:42;;;;;;;13.50;12.37;;;26.90;99.90;;;;;;4403792;32;20204;-67
2021/09/10 12:08:13;;;;;;;12.50;11.30;;;26.70;99.90;;;;;;4407156;32;20294;-65
2021/09/10 12:10:40;;;;;;;13.73;12.23;;;26.40;99.90;;;;;;4398515;32;20644;-66
2021/09/10 12:13:11;;;;;;;13.98;12.40;;;25.90;99.90;;;;;;4399378;32;20464;-66
2021/09/10 12:15:40;;;;;;;11.95;10.85;;;25.50;99.90;;;;;;4400960;32;20180;-65
2021/09/10 12:18:09;;;;;;;14.27;12.85;;;25.20;99.90;;;;;;4400809;32;20199;-65
2021/09/10 12:20:38;;;;;;;12.10;10.90;;;25.00;99.90;;;;;;4400854;32;20156;-65
2021/09/10 12:23:05;;;;;;;12.63;11.23;;;25.00;99.90;;;;;;4399354;32;20218;-65
2021/09/10 12:25:46;;;;;;;13.13;10.38;;;24.70;99.90;;;;;;4400036;32;20175;-65
2021/09/10 12:28:27;;;;;;;11.60;10.55;;;24.50;99.90;;;;;;4400439;32;20155;-65
2021/09/10 12:31:06;;;;;;;12.93;11.73;;;24.40;99.90;;;;;;4397758;32;20156;-66
2021/09/10 12:33:35;;;;;;;14.63;13.32;;;24.30;99.90;;;;;;4397015;32;20182;-65
2021/09/10 12:36:07;;;;;;;15.82;12.75;;;24.30;99.90;;;;;;4397807;32;20235;-68